createdAt,value
2023-05-20T00:00:41.600Z,99646.75
2023-05-20T00:02:16.072Z,99642.92
2023-05-20T00:03:49.262Z,99641.38
2023-05-20T00:05:24.701Z,99634.60
2023-05-20T00:07:05.283Z,99639.13
2023-05-20T00:08:26.920Z,99635.83
2023-05-20T00:10:00.837Z,99636.64
2023-05-20T00:11:53.889Z,99638.50
2023-05-20T00:13:47.682Z,99640.50
2023-05-20T00:15:12.460Z,99625.42
2023-05-20T00:16:56.047Z,99638.38
2023-05-20T00:18:18.033Z,99637.71
2023-05-20T00:19:53.712Z,99636.68
2023-05-20T00:21:29.952Z,99636.20
2023-05-20T00:23:15.245Z,99640.58
2023-05-20T00:24:55.756Z,99638.05
2023-05-20T00:26:42.731Z,99637.96
2023-05-20T00:28:28.070Z,99637.63
2023-05-20T00:30:04.230Z,99636.31
2023-05-20T00:31:49.475Z,99639.20
2023-05-20T00:33:19.304Z,99639.72
2023-05-20T00:34:55.041Z,99640.59
2023-05-20T00:36:46.465Z,99638.52
2023-05-20T00:38:31.673Z,99636.14
2023-05-20T00:40:06.198Z,99635.51
2023-05-20T00:41:50.826Z,99633.86
2023-05-20T00:43:27.199Z,99633.31
2023-05-20T00:45:03.188Z,99640.30
2023-05-20T00:46:48.393Z,99641.66
2023-05-20T00:48:13.510Z,99640.96
2023-05-20T00:49:59.391Z,99639.41
2023-05-20T00:51:46.129Z,99639.80
2023-05-20T00:53:35.693Z,99621.59
2023-05-20T00:55:16.883Z,99640.47
2023-05-20T00:56:53.084Z,99638.64
2023-05-20T00:58:38.197Z,99640.67
2023-05-20T01:00:23.786Z,99638.31
2023-05-20T01:01:59.555Z,99637.26
2023-05-20T01:03:33.379Z,99637.82
2023-05-20T01:05:14.570Z,99641.59
2023-05-20T01:06:55.255Z,99639.55
2023-05-20T01:08:28.992Z,99641.91
2023-05-20T01:10:03.224Z,99640.30
2023-05-20T01:11:48.245Z,99640.53
2023-05-20T01:13:22.297Z,99639.71
2023-05-20T01:14:44.690Z,99642.20
2023-05-20T01:16:14.023Z,99638.98
2023-05-20T01:17:46.135Z,99638.37
2023-05-20T01:19:10.710Z,99638.70
2023-05-20T01:20:44.038Z,99638.60
2023-05-20T01:22:20.886Z,99638.72
2023-05-20T01:24:06.097Z,99635.78
2023-05-20T01:25:29.844Z,99637.90
2023-05-20T01:26:59.054Z,99640.80
2023-05-20T01:28:33.301Z,99636.23
2023-05-20T01:29:58.181Z,99636.85
2023-05-20T01:31:42.068Z,99635.20
2023-05-20T01:33:07.103Z,99632.99
2023-05-20T01:34:52.133Z,99630.20
2023-05-20T01:36:38.014Z,99629.86
2023-05-20T01:38:09.433Z,99628.87
2023-05-20T01:39:47.002Z,99631.72
2023-05-20T01:41:20.795Z,99627.81
2023-05-20T01:43:05.924Z,99626.49
2023-05-20T01:44:47.010Z,99622.52
2023-05-20T01:46:18.748Z,99620.55
2023-05-20T01:47:50.851Z,99629.11
2023-05-20T01:49:22.837Z,99622.92
2023-05-20T01:50:56.238Z,99623.30
2023-05-20T01:52:32.132Z,99621.85
2023-05-20T01:54:07.851Z,99617.13
2023-05-20T01:55:41.541Z,99614.84
2023-05-20T01:57:22.505Z,99619.38
2023-05-20T01:58:53.298Z,99614.87
2023-05-20T02:00:48.012Z,99616.23
2023-05-20T02:02:24.697Z,99620.29
2023-05-20T02:03:46.916Z,99615.52
2023-05-20T02:05:08.955Z,99616.21
2023-05-20T02:06:30.638Z,99617.21
2023-05-20T02:08:16.090Z,99614.88
2023-05-20T02:09:46.114Z,99615.30
2023-05-20T02:11:22.035Z,99616.63
2023-05-20T02:12:47.829Z,99611.34
2023-05-20T02:14:19.155Z,99612.08
2023-05-20T02:15:51.934Z,99603.55
2023-05-20T02:17:37.420Z,99606.34
2023-05-20T02:19:24.708Z,99610.05
2023-05-20T02:21:10.242Z,99604.77
2023-05-20T02:22:43.714Z,99604.35
2023-05-20T02:24:29.322Z,99603.50
2023-05-20T02:26:05.144Z,99598.56
2023-05-20T02:27:38.597Z,99598.51
2023-05-20T02:29:23.984Z,99597.59
2023-05-20T02:30:52.835Z,99594.16
2023-05-20T02:32:28.933Z,99596.52
2023-05-20T02:34:15.961Z,99596.31
2023-05-20T02:36:03.316Z,99596.92
2023-05-20T02:37:48.084Z,99598.39
2023-05-20T02:39:33.222Z,99602.36
2023-05-20T02:41:11.998Z,99603.84
2023-05-20T02:42:52.805Z,99602.53
2023-05-20T02:44:24.568Z,99602.03
2023-05-20T02:46:10.131Z,99601.91
2023-05-20T02:47:39.752Z,99602.98
2023-05-20T02:49:04.285Z,99603.98
2023-05-20T02:50:40.133Z,99602.49
2023-05-20T02:52:25.401Z,99605.52
2023-05-20T02:54:19.223Z,99608.30
2023-05-20T02:55:52.140Z,99614.30
2023-05-20T02:57:25.727Z,99611.79
2023-05-20T02:59:06.854Z,99611.34
2023-05-20T03:00:31.291Z,99610.30
2023-05-20T03:01:57.566Z,99607.63
2023-05-20T03:03:41.567Z,99608.73
2023-05-20T03:05:13.670Z,99610.64
2023-05-20T03:06:58.927Z,99612.05
2023-05-20T03:08:34.691Z,99612.77
2023-05-20T03:10:10.360Z,99614.08
2023-05-20T03:11:52.148Z,99608.20
2023-05-20T03:13:16.712Z,99613.35
2023-05-20T03:14:55.324Z,99615.24
2023-05-20T03:16:37.489Z,99611.70
2023-05-20T03:18:31.954Z,99608.05
2023-05-20T03:20:17.148Z,99606.92
2023-05-20T03:21:53.085Z,99605.64
2023-05-20T03:23:35.437Z,99586.71
2023-05-20T03:25:09.134Z,99608.41
2023-05-20T03:26:43.040Z,99608.54
2023-05-20T03:28:32.979Z,99610.50
2023-05-20T03:30:18.493Z,99613.94
2023-05-20T03:32:05.090Z,99617.16
2023-05-20T03:33:50.149Z,99619.11
2023-05-20T03:35:26.122Z,99618.75
2023-05-20T03:37:02.006Z,99606.66
2023-05-20T03:38:36.070Z,99622.29
2023-05-20T03:40:24.584Z,99626.25
2023-05-20T03:41:49.112Z,99627.40
2023-05-20T03:43:34.495Z,99630.77
2023-05-20T03:45:20.015Z,99630.70
2023-05-20T03:47:08.519Z,99630.79
2023-05-20T03:48:53.265Z,99630.73
2023-05-20T03:50:26.909Z,99627.81
2023-05-20T03:51:56.223Z,99631.29
2023-05-20T03:53:29.802Z,99633.17
2023-05-20T03:55:10.855Z,99633.95
2023-05-20T03:56:55.266Z,99638.02
2023-05-20T03:58:51.530Z,99627.97
2023-05-20T04:00:27.810Z,99638.63
2023-05-20T04:02:01.644Z,99638.33
2023-05-20T04:03:54.902Z,99639.36
2023-05-20T04:05:49.020Z,99644.48
2023-05-20T04:07:25.931Z,99644.42
2023-05-20T04:09:00.165Z,99649.05
2023-05-20T04:10:36.078Z,99650.94
2023-05-20T04:12:09.691Z,99649.94
2023-05-20T04:13:46.138Z,99647.27
2023-05-20T04:15:20.121Z,99646.30
2023-05-20T04:17:02.113Z,99640.98
2023-05-20T04:18:39.084Z,99643.50
2023-05-20T04:20:16.553Z,99638.83
2023-05-20T04:21:49.535Z,99640.82
2023-05-20T04:23:35.638Z,99638.31
2023-05-20T04:25:15.498Z,99637.03
2023-05-20T04:26:51.559Z,99638.23
2023-05-20T04:28:28.130Z,99638.99
2023-05-20T04:30:02.444Z,99640.54
2023-05-20T04:31:38.572Z,99640.14
2023-05-20T04:33:24.157Z,99636.34
2023-05-20T04:35:09.048Z,99633.92
2023-05-20T04:36:53.336Z,99632.57
2023-05-20T04:38:16.404Z,99633.42
2023-05-20T04:40:09.688Z,99630.11
2023-05-20T04:41:54.690Z,99626.29
2023-05-20T04:43:45.750Z,99636.14
2023-05-20T04:45:26.435Z,99644.45
2023-05-20T04:46:59.809Z,99641.89
2023-05-20T04:48:33.727Z,99643.45
2023-05-20T04:50:14.741Z,99645.52
2023-05-20T04:51:55.694Z,99643.21
2023-05-20T04:53:20.110Z,99643.29
2023-05-20T04:55:00.791Z,99644.87
2023-05-20T04:56:34.150Z,99645.39
2023-05-20T04:58:20.103Z,99646.00
2023-05-20T05:00:05.806Z,99645.91
2023-05-20T05:01:42.539Z,99648.95
2023-05-20T05:03:07.562Z,99647.60
2023-05-20T05:04:52.422Z,99654.08
2023-05-20T05:06:37.787Z,99651.55
2023-05-20T05:08:01.987Z,99649.95
2023-05-20T05:09:37.915Z,99649.55
2023-05-20T05:11:11.246Z,99646.04
2023-05-20T05:12:44.584Z,99642.68
2023-05-20T05:14:29.855Z,99649.79
2023-05-20T05:15:56.084Z,99650.23
2023-05-20T05:17:32.973Z,99653.54
2023-05-20T05:19:09.433Z,99652.75
2023-05-20T05:20:51.303Z,99654.27
2023-05-20T05:22:37.126Z,99652.93
2023-05-20T05:24:18.041Z,99650.82
2023-05-20T05:26:11.029Z,99648.83
2023-05-20T05:27:52.965Z,99651.70
2023-05-20T05:29:27.393Z,99651.90
2023-05-20T05:31:21.399Z,99656.50
2023-05-20T05:32:56.896Z,99658.59
2023-05-20T05:34:21.609Z,99659.91
2023-05-20T05:36:13.485Z,99656.41
2023-05-20T05:37:58.377Z,99659.41
2023-05-20T05:39:25.081Z,99653.69
2023-05-20T05:41:00.276Z,99653.92
2023-05-20T05:42:22.503Z,99656.81
2023-05-20T05:43:44.664Z,99661.43
2023-05-20T05:45:30.834Z,99663.45
2023-05-20T05:47:15.213Z,99663.98
2023-05-20T05:48:51.056Z,99662.65
2023-05-20T05:50:28.499Z,99669.83
2023-05-20T05:52:02.763Z,99670.43
2023-05-20T05:53:47.580Z,99660.52
2023-05-20T05:55:28.920Z,99677.94
2023-05-20T05:57:09.913Z,99676.29
2023-05-20T05:58:51.300Z,99672.86
2023-05-20T06:00:33.032Z,99677.02
2023-05-20T06:02:18.376Z,99677.30
2023-05-20T06:04:13.001Z,99674.69
2023-05-20T06:05:48.717Z,99669.23
2023-05-20T06:07:20.440Z,99670.09
2023-05-20T06:08:56.459Z,99670.33
2023-05-20T06:10:25.605Z,99663.00
2023-05-20T06:12:16.448Z,99674.44
2023-05-20T06:14:01.621Z,99670.23
2023-05-20T06:15:46.610Z,99674.95
2023-05-20T06:17:22.475Z,99676.84
2023-05-20T06:18:55.857Z,99680.50
2023-05-20T06:20:29.334Z,99677.73
2023-05-20T06:22:10.501Z,99673.89
2023-05-20T06:23:38.356Z,99674.80
2023-05-20T06:25:14.998Z,99677.71
2023-05-20T06:27:01.326Z,99678.38
2023-05-20T06:28:26.089Z,99678.12
2023-05-20T06:29:59.671Z,99678.21
2023-05-20T06:31:48.298Z,99680.74
2023-05-20T06:33:29.859Z,99673.54
2023-05-20T06:35:18.293Z,99669.07
2023-05-20T06:36:47.876Z,99671.20
2023-05-20T06:38:09.984Z,99668.66
2023-05-20T06:39:54.538Z,99665.84
2023-05-20T06:41:39.796Z,99666.73
2023-05-20T06:43:13.824Z,99660.73
2023-05-20T06:44:54.890Z,99655.55
2023-05-20T06:46:39.770Z,99652.60
2023-05-20T06:48:29.212Z,99650.59
2023-05-20T06:50:14.982Z,99653.52
2023-05-20T06:51:44.131Z,99652.77
2023-05-20T06:53:08.720Z,99650.79
2023-05-20T06:54:42.721Z,99646.83
2023-05-20T06:56:08.526Z,99647.20
2023-05-20T06:57:42.005Z,99648.83
2023-05-20T06:59:15.332Z,99646.49
2023-05-20T07:00:37.873Z,99649.75
2023-05-20T07:02:02.119Z,99652.83
2023-05-20T07:03:55.821Z,99651.66
2023-05-20T07:05:31.733Z,99648.09
2023-05-20T07:07:12.470Z,99648.04
2023-05-20T07:08:36.709Z,99647.55
2023-05-20T07:10:10.755Z,99649.30
2023-05-20T07:11:55.759Z,99648.23
2023-05-20T07:13:31.842Z,99650.67
2023-05-20T07:14:55.876Z,99652.15
2023-05-20T07:16:32.396Z,99652.16
2023-05-20T07:17:59.135Z,99651.95
2023-05-20T07:19:43.109Z,99655.13
2023-05-20T07:21:19.297Z,99649.77
2023-05-20T07:23:15.665Z,99650.59
2023-05-20T07:24:59.550Z,99644.95
2023-05-20T07:26:36.110Z,99644.79
2023-05-20T07:28:00.485Z,99643.68
2023-05-20T07:29:24.473Z,99640.76
2023-05-20T07:31:10.395Z,99640.27
2023-05-20T07:33:00.776Z,99640.80
2023-05-20T07:34:45.690Z,99636.69
2023-05-20T07:36:26.976Z,99639.13
2023-05-20T07:37:54.361Z,99634.73
2023-05-20T07:39:27.805Z,99638.27
2023-05-20T07:41:08.590Z,99640.69
2023-05-20T07:42:41.767Z,99638.64
2023-05-20T07:44:12.565Z,99643.73
2023-05-20T07:45:49.142Z,99647.51
2023-05-20T07:47:23.292Z,99647.29
2023-05-20T07:48:49.750Z,99644.17
2023-05-20T07:50:23.870Z,99643.87
2023-05-20T07:51:49.174Z,99642.63
2023-05-20T07:53:23.082Z,99645.65
2023-05-20T07:54:56.837Z,99642.55
2023-05-20T07:56:30.433Z,99642.02
2023-05-20T07:58:03.866Z,99642.64
2023-05-20T07:59:39.090Z,99643.56
2023-05-20T08:01:24.642Z,99647.91
2023-05-20T08:02:58.004Z,99644.02
2023-05-20T08:04:40.342Z,99644.73
2023-05-20T08:06:14.150Z,99644.14
2023-05-20T08:07:47.404Z,99636.86
2023-05-20T08:09:21.727Z,99637.65
2023-05-20T08:11:09.443Z,99632.14
2023-05-20T08:12:32.061Z,99630.53
2023-05-20T08:14:17.325Z,99629.00
2023-05-20T08:15:56.982Z,99624.68
2023-05-20T08:17:30.390Z,99625.38
2023-05-20T08:19:03.940Z,99624.63
2023-05-20T08:20:31.630Z,99621.83
2023-05-20T08:22:08.398Z,99618.96
2023-05-20T08:23:56.826Z,99620.73
2023-05-20T08:25:33.681Z,99621.39
2023-05-20T08:27:16.274Z,99621.75
2023-05-20T08:28:49.356Z,99616.92
2023-05-20T08:30:26.113Z,99604.67
2023-05-20T08:31:58.084Z,99617.33
2023-05-20T08:33:43.522Z,99610.67
2023-05-20T08:35:08.033Z,99610.52
2023-05-20T08:36:34.813Z,99608.20
2023-05-20T08:38:08.736Z,99611.48
2023-05-20T08:39:49.396Z,99608.36
2023-05-20T08:41:25.509Z,99603.05
2023-05-20T08:42:59.325Z,99614.86
2023-05-20T08:44:23.994Z,99621.27
2023-05-20T08:46:09.388Z,99620.63
2023-05-20T08:47:46.148Z,99621.77
2023-05-20T08:49:31.652Z,99616.30
2023-05-20T08:51:02.868Z,99611.70
2023-05-20T08:52:38.713Z,99608.83
2023-05-20T08:54:19.159Z,99610.04
2023-05-20T08:55:42.725Z,99604.80
2023-05-20T08:57:12.168Z,99607.14
2023-05-20T08:59:02.082Z,99604.73
2023-05-20T09:00:47.385Z,99609.45
2023-05-20T09:02:23.245Z,99606.12
2023-05-20T09:03:45.255Z,99609.52
2023-05-20T09:05:21.237Z,99607.93
2023-05-20T09:07:01.287Z,99611.56
2023-05-20T09:08:27.630Z,99612.19
2023-05-20T09:10:03.311Z,99617.18
2023-05-20T09:11:25.237Z,99614.45
2023-05-20T09:12:46.843Z,99616.52
2023-05-20T09:17:25.486Z,99615.06
2023-05-20T09:18:49.931Z,99611.33
2023-05-20T09:20:32.817Z,99607.31
2023-05-20T09:22:05.186Z,99614.35
2023-05-20T09:23:30.727Z,99608.02
2023-05-20T09:25:04.253Z,99607.75
2023-05-20T09:26:40.502Z,99603.96
2023-05-20T09:28:14.920Z,99601.77
2023-05-20T09:30:00.414Z,99595.39
2023-05-20T09:31:45.675Z,99600.14
2023-05-20T09:33:20.794Z,99595.80
2023-05-20T09:34:45.511Z,99592.75
2023-05-20T09:36:10.651Z,99596.11
2023-05-20T09:37:56.198Z,99597.92
2023-05-20T09:39:32.390Z,99598.95
2023-05-20T09:40:56.233Z,99597.47
2023-05-20T09:42:18.184Z,99596.53
2023-05-20T09:43:42.774Z,99596.42
2023-05-20T09:45:16.215Z,99594.39
2023-05-20T09:46:40.613Z,99598.02
2023-05-20T09:48:05.021Z,99594.16
2023-05-20T09:49:46.093Z,99592.69
2023-05-20T09:51:08.282Z,99594.34
2023-05-20T09:52:41.870Z,99587.73
2023-05-20T09:54:03.942Z,99587.79
2023-05-20T09:55:39.821Z,99589.04
2023-05-20T09:57:12.155Z,99587.41
2023-05-20T09:58:45.678Z,99589.19
2023-05-20T10:00:22.265Z,99590.01
2023-05-20T10:01:54.030Z,99586.20
2023-05-20T10:03:30.477Z,99590.73
2023-05-20T10:05:04.257Z,99591.02
2023-05-20T10:06:38.210Z,99593.58
2023-05-20T10:08:00.394Z,99588.17
2023-05-20T10:09:31.932Z,99589.59
2023-05-20T10:11:14.873Z,99579.35
2023-05-20T10:12:36.336Z,99589.18
2023-05-20T10:13:58.139Z,99591.34
2023-05-20T10:15:43.239Z,99596.05
2023-05-20T10:17:09.098Z,99588.83
2023-05-20T10:18:31.447Z,99588.05
2023-05-20T10:19:55.541Z,99589.73
2023-05-20T10:21:24.771Z,99589.69
2023-05-20T10:22:48.671Z,99589.67
2023-05-20T10:24:22.251Z,99590.47
2023-05-20T10:25:43.799Z,99592.01
2023-05-20T10:27:06.432Z,99595.16
2023-05-20T10:28:39.764Z,99592.38
2023-05-20T10:30:12.986Z,99588.39
2023-05-20T10:31:46.840Z,99584.65
2023-05-20T10:33:20.921Z,99583.76
2023-05-20T10:35:06.136Z,99581.19
2023-05-20T10:36:41.439Z,99583.76
2023-05-20T10:38:30.432Z,99573.33
2023-05-20T10:39:59.960Z,99579.59
2023-05-20T10:41:29.500Z,99581.03
2023-05-20T10:43:01.061Z,99580.23
2023-05-20T10:44:36.638Z,99575.47
2023-05-20T10:46:34.928Z,99572.46
2023-05-20T10:48:19.202Z,99574.31
2023-05-20T10:49:41.216Z,99569.20
2023-05-20T10:51:05.945Z,99570.83
2023-05-20T10:52:59.835Z,99570.36
2023-05-20T10:54:24.095Z,99568.27
2023-05-20T10:55:55.799Z,99565.14
2023-05-20T10:57:29.411Z,99562.90
2023-05-20T10:58:50.755Z,99559.71
2023-05-20T11:00:24.520Z,99557.04
2023-05-20T11:01:53.592Z,99555.51
2023-05-20T11:03:18.344Z,99556.27
2023-05-20T11:05:04.210Z,99553.30
2023-05-20T11:06:27.235Z,99552.27
2023-05-20T11:08:00.445Z,99550.61
2023-05-20T11:09:31.899Z,99552.13
2023-05-20T11:11:13.342Z,99548.48
2023-05-20T11:12:58.572Z,99552.54
2023-05-20T11:14:35.122Z,99552.05
2023-05-20T11:15:59.146Z,99551.48
2023-05-20T11:17:21.347Z,99546.92
2023-05-20T11:18:58.061Z,99547.63
2023-05-20T11:20:20.270Z,99542.35
2023-05-20T11:21:53.750Z,99542.58
2023-05-20T11:23:23.721Z,99538.97
2023-05-20T11:25:08.778Z,99536.64
2023-05-20T11:26:45.500Z,99533.90
2023-05-20T11:28:27.321Z,99532.95
2023-05-20T11:29:56.205Z,99517.45
2023-05-20T11:31:37.788Z,99539.02
2023-05-20T11:33:23.197Z,99532.98
2023-05-20T11:34:47.902Z,99532.21
2023-05-20T11:36:27.811Z,99535.59
2023-05-20T11:37:52.535Z,99530.04
2023-05-20T11:39:28.879Z,99529.16
2023-05-20T11:40:53.415Z,99526.13
2023-05-20T11:42:38.668Z,99532.04
2023-05-20T11:44:13.549Z,99528.61
2023-05-20T11:45:47.159Z,99527.55
2023-05-20T11:47:32.481Z,99525.41
2023-05-20T11:49:17.994Z,99525.55
2023-05-20T11:50:40.640Z,99529.41
2023-05-20T11:52:25.654Z,99526.59
2023-05-20T11:53:49.609Z,99525.62
2023-05-20T11:55:11.896Z,99525.39
2023-05-20T11:56:45.376Z,99524.52
2023-05-20T11:58:07.674Z,99521.60
2023-05-20T11:59:31.624Z,99519.14
2023-05-20T12:01:22.275Z,99509.48
2023-05-20T12:03:11.954Z,99517.77
2023-05-20T12:04:45.574Z,99515.65
2023-05-20T12:06:07.330Z,99512.95
2023-05-20T12:07:34.208Z,99509.46
2023-05-20T12:09:09.745Z,99511.83
2023-05-20T12:10:34.294Z,99512.48
2023-05-20T12:12:17.256Z,99513.64
2023-05-20T12:13:39.393Z,99507.51
2023-05-20T12:15:26.430Z,99505.84
2023-05-20T12:16:59.884Z,99503.02
2023-05-20T12:18:33.858Z,99503.36
2023-05-20T12:19:56.015Z,99503.48
2023-05-20T12:21:29.840Z,99502.41
2023-05-20T12:22:51.482Z,99498.73
2023-05-20T12:24:15.542Z,99501.55
2023-05-20T12:25:37.426Z,99494.40
2023-05-20T12:27:01.359Z,99500.70
2023-05-20T12:28:25.707Z,99492.55
2023-05-20T12:30:11.477Z,99498.80
2023-05-20T12:31:35.052Z,99496.86
2023-05-20T12:32:57.379Z,99491.42
2023-05-20T12:34:20.395Z,99493.98
2023-05-20T12:35:44.573Z,99489.44
2023-05-20T12:37:13.638Z,99491.02
2023-05-20T12:38:36.121Z,99489.15
2023-05-20T12:40:16.845Z,99484.77
2023-05-20T12:41:50.338Z,99482.40
2023-05-20T12:43:12.366Z,99479.87
2023-05-20T12:44:34.291Z,99485.52
2023-05-20T12:46:09.985Z,99487.73
2023-05-20T12:47:50.727Z,99483.46
2023-05-20T12:49:24.657Z,99484.56
2023-05-20T12:51:00.538Z,99486.05
2023-05-20T12:52:41.657Z,99484.39
2023-05-20T12:54:03.517Z,99481.79
2023-05-20T12:55:27.522Z,99480.29
2023-05-20T12:57:01.163Z,99479.73
2023-05-20T12:58:34.683Z,99470.98
2023-05-20T13:00:01.418Z,99483.65
2023-05-20T13:01:25.740Z,99478.95
2023-05-20T13:02:59.283Z,99474.04
2023-05-20T13:04:32.737Z,99471.29
2023-05-20T13:06:05.736Z,99474.82
2023-05-20T13:07:29.891Z,99473.64
2023-05-20T13:08:54.240Z,99470.45
2023-05-20T13:10:27.796Z,99464.49
2023-05-20T13:11:49.681Z,99460.67
2023-05-20T13:13:28.809Z,99459.92
2023-05-20T13:15:06.625Z,99451.17
2023-05-20T13:16:39.966Z,99457.34
2023-05-20T13:18:15.687Z,99448.77
2023-05-20T13:19:49.400Z,99445.95
2023-05-20T13:21:25.356Z,99448.64
2023-05-20T13:22:46.926Z,99442.98
2023-05-20T13:24:09.141Z,99450.13
2023-05-20T13:25:42.872Z,99434.72
2023-05-20T13:27:14.376Z,99450.79
2023-05-20T13:28:36.941Z,99445.69
2023-05-20T13:30:06.180Z,99445.29
2023-05-20T13:31:40.050Z,99445.00
2023-05-20T13:33:04.183Z,99441.06
2023-05-20T13:34:28.845Z,99443.92
2023-05-20T13:35:50.378Z,99439.98
2023-05-20T13:37:14.404Z,99438.30
2023-05-20T13:38:59.610Z,99440.09
2023-05-20T13:40:36.435Z,99435.51
2023-05-20T13:42:21.929Z,99435.17
2023-05-20T13:44:02.771Z,99436.89
2023-05-20T13:45:36.514Z,99434.71
2023-05-20T13:47:00.573Z,99436.06
2023-05-20T13:48:33.835Z,99436.11
2023-05-20T13:50:07.452Z,99433.60
2023-05-20T13:51:52.916Z,99430.91
2023-05-20T13:53:28.696Z,99430.61
2023-05-20T13:55:02.272Z,99427.44
2023-05-20T13:56:36.079Z,99428.77
2023-05-20T13:58:09.360Z,99433.78
2023-05-20T13:59:53.956Z,99432.20
2023-05-20T14:01:35.571Z,99431.77
2023-05-20T14:03:10.394Z,99424.44
2023-05-20T14:04:56.949Z,99421.11
2023-05-20T14:06:32.926Z,99421.17
2023-05-20T14:07:59.455Z,99418.30
2023-05-20T14:09:28.713Z,99418.38
2023-05-20T14:10:52.293Z,99415.85
2023-05-20T14:12:37.477Z,99418.58
2023-05-20T14:14:06.338Z,99415.73
2023-05-20T14:15:33.331Z,99411.35
2023-05-20T14:17:18.589Z,99404.45
2023-05-20T14:18:59.509Z,99404.17
2023-05-20T14:20:33.588Z,99404.05
2023-05-20T14:22:18.847Z,99402.48
2023-05-20T14:23:52.204Z,99400.54
2023-05-20T14:25:16.609Z,99398.27
2023-05-20T14:26:45.997Z,99397.78
2023-05-20T14:28:07.771Z,99395.80
2023-05-20T14:29:29.982Z,99400.15
2023-05-20T14:31:05.517Z,99396.77
2023-05-20T14:32:51.388Z,99396.42
2023-05-20T14:34:25.113Z,99397.14
2023-05-20T14:35:51.406Z,99391.05
2023-05-20T14:37:27.911Z,99393.10
2023-05-20T14:38:59.483Z,99392.39
2023-05-20T14:40:33.293Z,99384.81
2023-05-20T14:41:55.276Z,99387.11
2023-05-20T14:43:40.616Z,99388.48
2023-05-20T14:45:06.912Z,99391.13
2023-05-20T14:46:40.571Z,99386.73
2023-05-20T14:48:23.356Z,99383.05
2023-05-20T14:50:04.093Z,99385.08
2023-05-20T14:51:58.946Z,99385.66
2023-05-20T14:53:32.500Z,99381.69
2023-05-20T14:55:08.291Z,99382.16
2023-05-20T14:56:41.897Z,99383.54
2023-05-20T14:58:15.647Z,99382.62
2023-05-20T14:59:39.677Z,99377.56
2023-05-20T15:01:15.391Z,99374.64
2023-05-20T15:02:37.919Z,99373.77
2023-05-20T15:04:02.248Z,99373.08
2023-05-20T15:05:47.257Z,99369.52
2023-05-20T15:07:30.320Z,99365.77
2023-05-20T15:08:52.131Z,99366.90
2023-05-20T15:10:26.137Z,99367.45
2023-05-20T15:11:55.465Z,99364.58
2023-05-20T15:13:28.890Z,99372.46
2023-05-20T15:15:22.248Z,99367.73
2023-05-20T15:16:58.108Z,99365.98
2023-05-20T15:18:32.004Z,99367.48
2023-05-20T15:20:13.004Z,99360.23
2023-05-20T15:21:58.459Z,99356.70
2023-05-20T15:23:34.529Z,99350.69
2023-05-20T15:25:09.827Z,99350.08
2023-05-20T15:27:04.937Z,99348.55
2023-05-20T15:28:38.234Z,99343.92
2023-05-20T15:30:11.604Z,99347.64
2023-05-20T15:31:52.821Z,99344.71
2023-05-20T15:33:25.270Z,99341.77
2023-05-20T15:35:02.579Z,99344.52
2023-05-20T15:36:24.929Z,99343.77
2023-05-20T15:37:46.675Z,99342.13
2023-05-20T15:39:22.863Z,99342.05
2023-05-20T15:40:59.192Z,99348.52
2023-05-20T15:42:23.631Z,99341.04
2023-05-20T15:43:56.813Z,99342.84
2023-05-20T15:45:30.656Z,99338.01
2023-05-20T15:46:52.134Z,99341.68
2023-05-20T15:48:26.823Z,99340.98
2023-05-20T15:50:04.284Z,99341.30
2023-05-20T15:51:37.898Z,99337.05
2023-05-20T15:53:00.006Z,99336.90
2023-05-20T15:54:21.908Z,99340.35
2023-05-20T15:55:51.479Z,99341.19
2023-05-20T15:57:32.726Z,99340.83
2023-05-20T15:59:14.889Z,99340.86
2023-05-20T16:00:39.444Z,99343.01
2023-05-20T16:02:26.853Z,99341.37
2023-05-20T16:04:10.041Z,99336.02
2023-05-20T16:05:32.209Z,99342.63
2023-05-20T16:06:56.021Z,99344.23
2023-05-20T16:08:25.988Z,99342.33
2023-05-20T16:09:57.633Z,99347.02
2023-05-20T16:11:22.814Z,99341.34
2023-05-20T16:12:49.287Z,99343.20
2023-05-20T16:14:23.157Z,99338.39
2023-05-20T16:15:46.968Z,99339.80
2023-05-20T16:17:21.717Z,99333.50
2023-05-20T16:18:52.952Z,99336.88
2023-05-20T16:20:38.412Z,99334.56
2023-05-20T16:22:20.060Z,99332.95
2023-05-20T16:23:49.152Z,99339.86
2023-05-20T16:25:15.161Z,99335.73
2023-05-20T16:26:44.319Z,99339.73
2023-05-20T16:28:25.315Z,99335.17
2023-05-20T16:30:10.397Z,99333.32
2023-05-20T16:31:46.314Z,99329.09
2023-05-20T16:33:21.888Z,99331.80
2023-05-20T16:34:57.746Z,99331.77
2023-05-20T16:36:33.271Z,99328.11
2023-05-20T16:38:08.839Z,99325.02
2023-05-20T16:39:38.288Z,99321.06
2023-05-20T16:41:11.546Z,99321.79
2023-05-20T16:42:58.578Z,99319.42
2023-05-20T16:44:39.386Z,99318.75
2023-05-20T16:46:14.529Z,99320.64
2023-05-20T16:47:36.967Z,99321.55
2023-05-20T16:48:58.813Z,99323.08
2023-05-20T16:50:22.927Z,99323.02
2023-05-20T16:51:56.381Z,99321.95
2023-05-20T16:53:25.359Z,99323.82
2023-05-20T16:55:15.003Z,99323.38
2023-05-20T16:56:50.879Z,99321.70
2023-05-20T16:58:33.903Z,99319.88
2023-05-20T16:59:58.430Z,99316.14
2023-05-20T17:01:44.091Z,99318.88
2023-05-20T17:03:18.086Z,99317.83
2023-05-20T17:04:39.501Z,99317.10
2023-05-20T17:06:03.594Z,99317.53
2023-05-20T17:07:48.735Z,99315.65
2023-05-20T17:09:18.057Z,99314.80
2023-05-20T17:10:54.366Z,99316.80
2023-05-20T17:12:28.316Z,99320.01
2023-05-20T17:14:22.021Z,99318.05
2023-05-20T17:15:51.055Z,99318.88
2023-05-20T17:17:31.855Z,99323.30
2023-05-20T17:18:56.227Z,99321.21
2023-05-20T17:20:29.573Z,99321.02
2023-05-20T17:21:50.920Z,99322.13
2023-05-20T17:23:14.691Z,99321.05
2023-05-20T17:24:41.282Z,99322.29
2023-05-20T17:26:25.317Z,99321.00
2023-05-20T17:28:19.960Z,99317.03
2023-05-20T17:30:01.209Z,99314.09
2023-05-20T17:31:23.278Z,99313.39
2023-05-20T17:33:08.997Z,99309.39
2023-05-20T17:34:33.288Z,99311.94
2023-05-20T17:36:02.377Z,99315.12
2023-05-20T17:37:24.393Z,99313.92
2023-05-20T17:39:18.451Z,99312.08
2023-05-20T17:40:53.974Z,99313.02
2023-05-20T17:42:28.015Z,99314.14
2023-05-20T17:44:03.502Z,99313.86
2023-05-20T17:45:48.641Z,99318.05
2023-05-20T17:47:21.620Z,99320.16
2023-05-20T17:48:55.065Z,99323.00
2023-05-20T17:50:35.844Z,99324.73
2023-05-20T17:52:13.034Z,99323.52
2023-05-20T17:53:58.620Z,99323.19
2023-05-20T17:55:39.686Z,99320.63
2023-05-20T17:57:22.567Z,99320.36
2023-05-20T17:58:46.879Z,99323.92
2023-05-20T18:00:11.040Z,99325.45
2023-05-20T18:02:00.440Z,99327.27
2023-05-20T18:03:46.051Z,99327.84
2023-05-20T18:05:19.792Z,99327.37
2023-05-20T18:07:04.762Z,99329.30
2023-05-20T18:08:28.923Z,99323.45
2023-05-20T18:10:10.770Z,99328.59
2023-05-20T18:11:47.152Z,99329.91
2023-05-20T18:13:22.746Z,99324.54
2023-05-20T18:14:51.593Z,99333.13
2023-05-20T18:16:27.492Z,99330.70
2023-05-20T18:17:49.167Z,99330.46
2023-05-20T18:19:29.071Z,99335.11
2023-05-20T18:21:13.680Z,99333.64
2023-05-20T18:22:58.882Z,99336.65
2023-05-20T18:24:34.984Z,99333.92
2023-05-20T18:25:59.096Z,99334.27
2023-05-20T18:27:21.163Z,99334.84
2023-05-20T18:28:50.472Z,99334.27
2023-05-20T18:30:17.822Z,99331.02
2023-05-20T18:31:42.590Z,99327.67
2023-05-20T18:33:04.967Z,99331.88
2023-05-20T18:34:29.675Z,99326.67
2023-05-20T18:35:54.572Z,99327.81
2023-05-20T18:37:35.501Z,99326.70
2023-05-20T18:38:59.191Z,99327.46
2023-05-20T18:40:21.309Z,99319.45